sensor_id;sensor_type;location;lat;lon;timestamp;pressure;altitude;pressure_sealevel;temperature;humidity
76858;BME280;65830;0.000;0.000;2024-01-07T00:01:46;98517.84;;;6.33;100.00
76858;BME280;65830;0.000;0.000;2024-01-07T00:04:14;98543.38;;;6.52;100.00
76858;BME280;65830;0.000;0.000;2024-01-07T00:06:39;98508.44;;;6.31;100.00
76858;BME280;65830;0.000;0.000;2024-01-07T00:09:05;98522.00;;;6.26;100.00
76858;BME280;65830;0.000;0.000;2024-01-07T00:11:30;98477.66;;;6.31;100.00
76858;BME280;65830;0.000;0.000;2024-01-07T00:13:55;98460.97;;;6.60;100.00
76858;BME280;65830;0.000;0.000;2024-01-07T00:16:21;98445.69;;;6.54;100.00
76858;BME280;65830;0.000;0.000;2024-01-07T00:18:46;98432.16;;;6.39;100.00
76858;BME280;65830;0.000;0.000;2024-01-07T00:21:12;98437.34;;;6.68;100.00
76858;BME280;65830;0.000;0.000;2024-01-07T00:23:37;98462.44;;;6.72;100.00
76858;BME280;65830;0.000;0.000;2024-01-07T00:26:04;98448.75;;;6.59;100.00
76858;BME280;65830;0.000;0.000;2024-01-07T00:28:29;98438.53;;;6.46;100.00
76858;BME280;65830;0.000;0.000;2024-01-07T00:30:55;98443.81;;;6.36;100.00
76858;BME280;65830;0.000;0.000;2024-01-07T00:33:24;98457.41;;;6.22;100.00
76858;BME280;65830;0.000;0.000;2024-01-07T00:35:51;98451.44;;;6.20;100.00
76858;BME280;65830;0.000;0.000;2024-01-07T00:38:16;98433.44;;;6.25;100.00
76858;BME280;65830;0.000;0.000;2024-01-07T00:40:42;98433.25;;;6.46;100.00
76858;BME280;65830;0.000;0.000;2024-01-07T00:43:07;98435.78;;;6.75;100.00
76858;BME280;65830;0.000;0.000;2024-01-07T00:45:33;98428.72;;;6.76;100.00
76858;BME280;65830;0.000;0.000;2024-01-07T00:47:58;98435.72;;;6.48;100.00
76858;BME280;65830;0.000;0.000;2024-01-07T00:50:24;98414.53;;;6.40;100.00
76858;BME280;65830;0.000;0.000;2024-01-07T00:52:50;98421.38;;;6.23;100.00
76858;BME280;65830;0.000;0.000;2024-01-07T00:55:16;98404.72;;;6.32;100.00
76858;BME280;65830;0.000;0.000;2024-01-07T00:57:42;98386.38;;;6.40;100.00
76858;BME280;65830;0.000;0.000;2024-01-07T01:00:07;98384.19;;;6.35;100.00
76858;BME280;65830;0.000;0.000;2024-01-07T01:02:33;98391.63;;;6.50;100.00
76858;BME280;65830;0.000;0.000;2024-01-07T01:04:59;98378.31;;;6.79;100.00
76858;BME280;65830;0.000;0.000;2024-01-07T01:07:24;98385.59;;;6.67;100.00
76858;BME280;65830;0.000;0.000;2024-01-07T01:09:50;98357.38;;;6.78;100.00
76858;BME280;65830;0.000;0.000;2024-01-07T01:12:15;98341.31;;;6.71;100.00
76858;BME280;65830;0.000;0.000;2024-01-07T01:14:41;98296.03;;;6.57;100.00
76858;BME280;65830;0.000;0.000;2024-01-07T01:17:06;98260.22;;;6.83;100.00
76858;BME280;65830;0.000;0.000;2024-01-07T01:19:32;98279.44;;;6.75;100.00
76858;BME280;65830;0.000;0.000;2024-01-07T01:21:57;98298.09;;;6.82;100.00
76858;BME280;65830;0.000;0.000;2024-01-07T01:24:23;98290.22;;;6.54;100.00
76858;BME280;65830;0.000;0.000;2024-01-07T01:26:48;98290.09;;;6.73;100.00
76858;BME280;65830;0.000;0.000;2024-01-07T01:29:14;98296.50;;;6.71;100.00
76858;BME280;65830;0.000;0.000;2024-01-07T01:31:39;98296.50;;;6.71;100.00
76858;BME280;65830;0.000;0.000;2024-01-07T01:34:06;98285.28;;;6.69;100.00
76858;BME280;65830;0.000;0.000;2024-01-07T01:36:31;98262.16;;;6.63;100.00
76858;BME280;65830;0.000;0.000;2024-01-07T01:38:57;98249.09;;;6.43;100.00
76858;BME280;65830;0.000;0.000;2024-01-07T01:41:22;98251.50;;;6.36;100.00
76858;BME280;65830;0.000;0.000;2024-01-07T01:43:48;98218.06;;;6.37;100.00
76858;BME280;65830;0.000;0.000;2024-01-07T01:46:14;98211.06;;;6.46;100.00
76858;BME280;65830;0.000;0.000;2024-01-07T01:48:39;98211.88;;;6.74;100.00
76858;BME280;65830;0.000;0.000;2024-01-07T01:51:06;98185.41;;;6.66;100.00
76858;BME280;65830;0.000;0.000;2024-01-07T01:53:32;98193.25;;;6.75;100.00
76858;BME280;65830;0.000;0.000;2024-01-07T01:55:59;98204.03;;;6.82;100.00
76858;BME280;65830;0.000;0.000;2024-01-07T01:58:26;98189.47;;;7.14;100.00
76858;BME280;65830;0.000;0.000;2024-01-07T02:00:51;98179.94;;;7.21;100.00
76858;BME280;65830;0.000;0.000;2024-01-07T02:03:17;98185.09;;;7.23;100.00
76858;BME280;65830;0.000;0.000;2024-01-07T02:05:43;98171.59;;;7.52;100.00
76858;BME280;65830;0.000;0.000;2024-01-07T02:08:08;98155.28;;;7.56;100.00
76858;BME280;65830;0.000;0.000;2024-01-07T02:10:34;98160.28;;;7.33;100.00
76858;BME280;65830;0.000;0.000;2024-01-07T02:13:04;98156.16;;;7.39;100.00
76858;BME280;65830;0.000;0.000;2024-01-07T02:15:30;98146.03;;;7.26;100.00
76858;BME280;65830;0.000;0.000;2024-01-07T02:17:56;98134.97;;;7.23;100.00
76858;BME280;65830;0.000;0.000;2024-01-07T02:20:21;98147.94;;;7.16;100.00
76858;BME280;65830;0.000;0.000;2024-01-07T02:22:47;98138.59;;;7.22;100.00
76858;BME280;65830;0.000;0.000;2024-01-07T02:25:13;98139.09;;;7.25;100.00
76858;BME280;65830;0.000;0.000;2024-01-07T02:27:38;98137.84;;;7.11;100.00
76858;BME280;65830;0.000;0.000;2024-01-07T02:30:04;98130.06;;;7.28;100.00
76858;BME280;65830;0.000;0.000;2024-01-07T02:32:30;98134.28;;;7.21;100.00
76858;BME280;65830;0.000;0.000;2024-01-07T02:34:59;98115.66;;;7.22;100.00
76858;BME280;65830;0.000;0.000;2024-01-07T02:37:25;98095.88;;;7.18;100.00
76858;BME280;65830;0.000;0.000;2024-01-07T02:39:50;98072.47;;;7.23;100.00
76858;BME280;65830;0.000;0.000;2024-01-07T02:42:16;98069.16;;;7.21;100.00
76858;BME280;65830;0.000;0.000;2024-01-07T02:44:41;98059.13;;;7.25;100.00
76858;BME280;65830;0.000;0.000;2024-01-07T02:47:07;98042.38;;;7.34;100.00
76858;BME280;65830;0.000;0.000;2024-01-07T02:49:33;98046.31;;;7.30;100.00
76858;BME280;65830;0.000;0.000;2024-01-07T02:51:59;98054.25;;;7.38;100.00
76858;BME280;65830;0.000;0.000;2024-01-07T02:54:24;98055.69;;;7.32;100.00
76858;BME280;65830;0.000;0.000;2024-01-07T02:56:50;98054.09;;;7.40;100.00
76858;BME280;65830;0.000;0.000;2024-01-07T02:59:15;98062.22;;;7.54;100.00
76858;BME280;65830;0.000;0.000;2024-01-07T03:01:41;98072.94;;;7.95;100.00
76858;BME280;65830;0.000;0.000;2024-01-07T03:04:11;98062.50;;;7.86;100.00
76858;BME280;65830;0.000;0.000;2024-01-07T03:06:37;98071.59;;;7.83;100.00
76858;BME280;65830;0.000;0.000;2024-01-07T03:09:03;98086.44;;;7.84;100.00
76858;BME280;65830;0.000;0.000;2024-01-07T03:11:28;98084.13;;;7.81;100.00
76858;BME280;65830;0.000;0.000;2024-01-07T03:13:55;98088.09;;;7.85;100.00
76858;BME280;65830;0.000;0.000;2024-01-07T03:16:21;98096.34;;;7.90;100.00
76858;BME280;65830;0.000;0.000;2024-01-07T03:18:46;98079.66;;;7.82;100.00
76858;BME280;65830;0.000;0.000;2024-01-07T03:23:44;98098.13;;;8.32;100.00
76858;BME280;65830;0.000;0.000;2024-01-07T03:26:09;98097.63;;;8.37;100.00
76858;BME280;65830;0.000;0.000;2024-01-07T03:28:35;98094.50;;;8.42;100.00
76858;BME280;65830;0.000;0.000;2024-01-07T03:31:03;98076.31;;;8.39;100.00
76858;BME280;65830;0.000;0.000;2024-01-07T03:33:29;98067.78;;;8.53;100.00
76858;BME280;65830;0.000;0.000;2024-01-07T03:35:54;98067.75;;;8.61;100.00
76858;BME280;65830;0.000;0.000;2024-01-07T03:38:20;98075.19;;;8.66;100.00
76858;BME280;65830;0.000;0.000;2024-01-07T03:40:45;98060.66;;;8.70;100.00
76858;BME280;65830;0.000;0.000;2024-01-07T03:43:11;98060.66;;;8.86;100.00
76858;BME280;65830;0.000;0.000;2024-01-07T03:45:37;98075.69;;;8.86;100.00
76858;BME280;65830;0.000;0.000;2024-01-07T03:48:02;98076.34;;;8.80;100.00
76858;BME280;65830;0.000;0.000;2024-01-07T03:50:28;98056.50;;;9.00;100.00
76858;BME280;65830;0.000;0.000;2024-01-07T03:52:53;98039.75;;;9.16;100.00
76858;BME280;65830;0.000;0.000;2024-01-07T03:55:19;98032.13;;;9.21;100.00
76858;BME280;65830;0.000;0.000;2024-01-07T03:57:44;98031.63;;;9.18;100.00
76858;BME280;65830;0.000;0.000;2024-01-07T04:00:10;98059.09;;;9.25;100.00
76858;BME280;65830;0.000;0.000;2024-01-07T04:02:36;98046.19;;;9.22;100.00
76858;BME280;65830;0.000;0.000;2024-01-07T04:05:01;98042.91;;;9.20;100.00
76858;BME280;65830;0.000;0.000;2024-01-07T04:07:27;98024.25;;;9.05;100.00
76858;BME280;65830;0.000;0.000;2024-01-07T04:09:52;98014.84;;;8.94;100.00
76858;BME280;65830;0.000;0.000;2024-01-07T04:12:17;97996.16;;;8.95;100.00
76858;BME280;65830;0.000;0.000;2024-01-07T04:14:43;97975.53;;;8.83;100.00
76858;BME280;65830;0.000;0.000;2024-01-07T04:17:09;97978.00;;;8.84;100.00
76858;BME280;65830;0.000;0.000;2024-01-07T04:19:36;97965.28;;;8.80;100.00
76858;BME280;65830;0.000;0.000;2024-01-07T04:22:01;97975.16;;;8.86;100.00
76858;BME280;65830;0.000;0.000;2024-01-07T04:24:27;97997.63;;;8.90;100.00
76858;BME280;65830;0.000;0.000;2024-01-07T04:26:52;98024.44;;;8.87;100.00
76858;BME280;65830;0.000;0.000;2024-01-07T04:29:18;98017.19;;;8.81;100.00
76858;BME280;65830;0.000;0.000;2024-01-07T04:31:44;98007.56;;;9.04;100.00
76858;BME280;65830;0.000;0.000;2024-01-07T04:34:10;98003.44;;;8.85;100.00
76858;BME280;65830;0.000;0.000;2024-01-07T04:36:35;98003.16;;;8.64;100.00
76858;BME280;65830;0.000;0.000;2024-01-07T04:39:01;98012.72;;;8.32;100.00
76858;BME280;65830;0.000;0.000;2024-01-07T04:41:26;98029.09;;;8.52;100.00
76858;BME280;65830;0.000;0.000;2024-01-07T04:43:52;98033.25;;;8.63;100.00
76858;BME280;65830;0.000;0.000;2024-01-07T04:46:17;98031.75;;;8.52;100.00
76858;BME280;65830;0.000;0.000;2024-01-07T04:48:43;98040.97;;;8.31;100.00
76858;BME280;65830;0.000;0.000;2024-01-07T04:51:08;98013.88;;;8.21;100.00
76858;BME280;65830;0.000;0.000;2024-01-07T04:53:34;97990.97;;;8.46;100.00
76858;BME280;65830;0.000;0.000;2024-01-07T04:55:59;97997.53;;;8.34;100.00
76858;BME280;65830;0.000;0.000;2024-01-07T04:58:25;97990.78;;;8.48;100.00
76858;BME280;65830;0.000;0.000;2024-01-07T05:00:50;97977.91;;;8.45;100.00
76858;BME280;65830;0.000;0.000;2024-01-07T05:03:15;97977.84;;;8.28;100.00
76858;BME280;65830;0.000;0.000;2024-01-07T05:05:41;97982.34;;;8.11;100.00
76858;BME280;65830;0.000;0.000;2024-01-07T05:08:06;97996.03;;;8.07;100.00
76858;BME280;65830;0.000;0.000;2024-01-07T05:10:32;98007.78;;;8.21;100.00
76858;BME280;65830;0.000;0.000;2024-01-07T05:12:58;97994.06;;;8.09;100.00
76858;BME280;65830;0.000;0.000;2024-01-07T05:15:23;98003.28;;;7.96;100.00
76858;BME280;65830;0.000;0.000;2024-01-07T05:17:49;97988.44;;;8.12;100.00
76858;BME280;65830;0.000;0.000;2024-01-07T05:20:17;97986.75;;;7.94;100.00
76858;BME280;65830;0.000;0.000;2024-01-07T05:22:43;97995.03;;;7.91;100.00
76858;BME280;65830;0.000;0.000;2024-01-07T05:25:08;97983.81;;;8.06;100.00
76858;BME280;65830;0.000;0.000;2024-01-07T05:27:34;97988.44;;;8.28;100.00
76858;BME280;65830;0.000;0.000;2024-01-07T05:29:59;97999.34;;;8.33;100.00
76858;BME280;65830;0.000;0.000;2024-01-07T05:32:25;98001.66;;;8.20;100.00
76858;BME280;65830;0.000;0.000;2024-01-07T05:34:50;97989.75;;;8.00;100.00
76858;BME280;65830;0.000;0.000;2024-01-07T05:37:16;97975.22;;;8.12;100.00
76858;BME280;65830;0.000;0.000;2024-01-07T05:39:41;97967.28;;;8.28;100.00
76858;BME280;65830;0.000;0.000;2024-01-07T05:42:07;97960.69;;;8.16;100.00
76858;BME280;65830;0.000;0.000;2024-01-07T05:44:32;97973.91;;;8.24;100.00
76858;BME280;65830;0.000;0.000;2024-01-07T05:46:58;97981.22;;;8.47;100.00
76858;BME280;65830;0.000;0.000;2024-01-07T05:49:24;97986.13;;;8.33;100.00
76858;BME280;65830;0.000;0.000;2024-01-07T05:51:49;97991.09;;;8.69;100.00
76858;BME280;65830;0.000;0.000;2024-01-07T05:54:15;98011.91;;;8.81;100.00
76858;BME280;65830;0.000;0.000;2024-01-07T05:56:41;98009.25;;;8.81;100.00
76858;BME280;65830;0.000;0.000;2024-01-07T05:59:07;98004.28;;;8.94;100.00
76858;BME280;65830;0.000;0.000;2024-01-07T06:01:32;98003.13;;;8.72;100.00
76858;BME280;65830;0.000;0.000;2024-01-07T06:03:58;98006.63;;;8.72;100.00
76858;BME280;65830;0.000;0.000;2024-01-07T06:06:23;97985.97;;;8.60;100.00
76858;BME280;65830;0.000;0.000;2024-01-07T06:08:49;97986.13;;;8.33;100.00
76858;BME280;65830;0.000;0.000;2024-01-07T06:11:14;97988.44;;;8.20;100.00
76858;BME280;65830;0.000;0.000;2024-01-07T06:13:44;97963.34;;;8.32;100.00
76858;BME280;65830;0.000;0.000;2024-01-07T06:16:10;97947.00;;;8.37;100.00
76858;BME280;65830;0.000;0.000;2024-01-07T06:18:35;97977.56;;;8.48;100.00
76858;BME280;65830;0.000;0.000;2024-01-07T06:21:01;97982.63;;;8.74;100.00
76858;BME280;65830;0.000;0.000;2024-01-07T06:23:26;97992.75;;;8.62;100.00
76858;BME280;65830;0.000;0.000;2024-01-07T06:25:52;98002.66;;;8.77;100.00
76858;BME280;65830;0.000;0.000;2024-01-07T06:28:17;97996.38;;;8.61;100.00
76858;BME280;65830;0.000;0.000;2024-01-07T06:30:42;97985.81;;;8.61;100.00
76858;BME280;65830;0.000;0.000;2024-01-07T06:33:08;97997.03;;;8.63;100.00
76858;BME280;65830;0.000;0.000;2024-01-07T06:35:33;97997.19;;;8.62;100.00
76858;BME280;65830;0.000;0.000;2024-01-07T06:37:59;97988.59;;;8.68;100.00
76858;BME280;65830;0.000;0.000;2024-01-07T06:40:25;97972.63;;;8.45;100.00
76858;BME280;65830;0.000;0.000;2024-01-07T06:42:50;97956.09;;;8.34;100.00
76858;BME280;65830;0.000;0.000;2024-01-07T06:45:18;97968.97;;;8.21;100.00
76858;BME280;65830;0.000;0.000;2024-01-07T06:47:44;97959.38;;;8.20;100.00
76858;BME280;65830;0.000;0.000;2024-01-07T06:50:10;97961.69;;;8.15;100.00
76858;BME280;65830;0.000;0.000;2024-01-07T06:52:35;97982.84;;;8.07;100.00
76858;BME280;65830;0.000;0.000;2024-01-07T06:55:01;97980.69;;;8.19;100.00
76858;BME280;65830;0.000;0.000;2024-01-07T06:57:26;97983.00;;;8.22;100.00
76858;BME280;65830;0.000;0.000;2024-01-07T06:59:52;97995.56;;;8.52;100.00
76858;BME280;65830;0.000;0.000;2024-01-07T07:02:17;98008.78;;;8.52;100.00
76858;BME280;65830;0.000;0.000;2024-01-07T07:04:43;98016.69;;;8.44;100.00
76858;BME280;65830;0.000;0.000;2024-01-07T07:07:08;98022.19;;;8.43;100.00
76858;BME280;65830;0.000;0.000;2024-01-07T07:09:34;98021.19;;;8.68;100.00
76858;BME280;65830;0.000;0.000;2024-01-07T07:11:59;98024.47;;;8.70;100.00
76858;BME280;65830;0.000;0.000;2024-01-07T07:14:25;98021.00;;;8.62;100.00
76858;BME280;65830;0.000;0.000;2024-01-07T07:16:50;98009.75;;;8.60;100.00
76858;BME280;65830;0.000;0.000;2024-01-07T07:19:16;98010.78;;;8.50;100.00
76858;BME280;65830;0.000;0.000;2024-01-07T07:21:42;98017.19;;;8.40;100.00
76858;BME280;65830;0.000;0.000;2024-01-07T07:24:08;98012.88;;;8.30;100.00
76858;BME280;65830;0.000;0.000;2024-01-07T07:26:33;98017.56;;;8.45;100.00
76858;BME280;65830;0.000;0.000;2024-01-07T07:29:01;98006.97;;;8.61;100.00
76858;BME280;65830;0.000;0.000;2024-01-07T07:31:27;98017.03;;;8.82;100.00
76858;BME280;65830;0.000;0.000;2024-01-07T07:33:52;98010.88;;;8.82;100.00
76858;BME280;65830;0.000;0.000;2024-01-07T07:36:18;97996.06;;;8.64;100.00
76858;BME280;65830;0.000;0.000;2024-01-07T07:38:43;98018.78;;;9.06;100.00
76858;BME280;65830;0.000;0.000;2024-01-07T07:41:09;98014.22;;;8.67;100.00
76858;BME280;65830;0.000;0.000;2024-01-07T07:43:34;98021.47;;;8.73;100.00
76858;BME280;65830;0.000;0.000;2024-01-07T07:46:00;98014.19;;;8.84;100.00
76858;BME280;65830;0.000;0.000;2024-01-07T07:48:28;98018.44;;;9.09;100.00
76858;BME280;65830;0.000;0.000;2024-01-07T07:50:54;98032.69;;;9.00;100.00
76858;BME280;65830;0.000;0.000;2024-01-07T07:53:19;98041.94;;;8.88;100.00
76858;BME280;65830;0.000;0.000;2024-01-07T07:55:45;98034.00;;;8.88;100.00
76858;BME280;65830;0.000;0.000;2024-01-07T07:58:10;98020.97;;;8.94;100.00
76858;BME280;65830;0.000;0.000;2024-01-07T08:00:36;98003.63;;;9.31;100.00
76858;BME280;65830;0.000;0.000;2024-01-07T08:03:01;97998.03;;;9.26;100.00
76858;BME280;65830;0.000;0.000;2024-01-07T08:05:27;98010.50;;;9.09;100.00
76858;BME280;65830;0.000;0.000;2024-01-07T08:07:52;98013.25;;;9.32;100.00
76858;BME280;65830;0.000;0.000;2024-01-07T08:10:19;98004.53;;;9.15;100.00
76858;BME280;65830;0.000;0.000;2024-01-07T08:12:44;98022.38;;;9.22;100.00
76858;BME280;65830;0.000;0.000;2024-01-07T08:15:10;98023.56;;;9.11;100.00
76858;BME280;65830;0.000;0.000;2024-01-07T08:17:36;98017.84;;;9.39;100.00
76858;BME280;65830;0.000;0.000;2024-01-07T08:20:01;98008.09;;;9.31;100.00
76858;BME280;65830;0.000;0.000;2024-01-07T08:22:29;98004.56;;;9.47;100.00
76858;BME280;65830;0.000;0.000;2024-01-07T08:24:54;98008.16;;;9.62;100.00
76858;BME280;65830;0.000;0.000;2024-01-07T08:27:20;98024.97;;;9.78;100.00
76858;BME280;65830;0.000;0.000;2024-01-07T08:29:45;98025.06;;;9.53;100.00
76858;BME280;65830;0.000;0.000;2024-01-07T08:32:11;98021.63;;;9.44;100.00
76858;BME280;65830;0.000;0.000;2024-01-07T08:34:37;98028.22;;;9.48;100.00
76858;BME280;65830;0.000;0.000;2024-01-07T08:37:03;98022.63;;;9.43;100.00
76858;BME280;65830;0.000;0.000;2024-01-07T08:39:28;98017.97;;;9.45;100.00
76858;BME280;65830;0.000;0.000;2024-01-07T08:41:55;98023.53;;;9.59;100.00
76858;BME280;65830;0.000;0.000;2024-01-07T08:44:20;98024.19;;;9.61;100.00
76858;BME280;65830;0.000;0.000;2024-01-07T08:46:46;98019.88;;;9.68;100.00
76858;BME280;65830;0.000;0.000;2024-01-07T08:49:11;98019.50;;;9.79;100.00
76858;BME280;65830;0.000;0.000;2024-01-07T08:51:37;98022.13;;;9.79;100.00
76858;BME280;65830;0.000;0.000;2024-01-07T08:54:03;98028.53;;;9.85;100.00
76858;BME280;65830;0.000;0.000;2024-01-07T08:56:29;98016.78;;;9.87;100.00
76858;BME280;65830;0.000;0.000;2024-01-07T08:58:54;98009.13;;;9.92;100.00
76858;BME280;65830;0.000;0.000;2024-01-07T09:01:20;98018.94;;;10.15;100.00
76858;BME280;65830;0.000;0.000;2024-01-07T09:03:45;98016.13;;;10.40;100.00
76858;BME280;65830;0.000;0.000;2024-01-07T09:06:11;98011.53;;;10.33;100.00
76858;BME280;65830;0.000;0.000;2024-01-07T09:08:36;98014.28;;;10.17;100.00
76858;BME280;65830;0.000;0.000;2024-01-07T09:11:04;98015.09;;;10.18;100.00
76858;BME280;65830;0.000;0.000;2024-01-07T09:13:31;98003.25;;;10.28;100.00
76858;BME280;65830;0.000;0.000;2024-01-07T09:15:57;98003.94;;;10.22;100.00
76858;BME280;65830;0.000;0.000;2024-01-07T09:18:23;98010.28;;;10.21;100.00
76858;BME280;65830;0.000;0.000;2024-01-07T09:20:48;98009.63;;;10.19;100.00
76858;BME280;65830;0.000;0.000;2024-01-07T09:23:13;97998.44;;;10.32;100.00
76858;BME280;65830;0.000;0.000;2024-01-07T09:25:40;97992.44;;;10.38;100.00
76858;BME280;65830;0.000;0.000;2024-01-07T09:28:06;97987.66;;;10.33;100.00
76858;BME280;65830;0.000;0.000;2024-01-07T09:30:32;97977.88;;;10.34;100.00
76858;BME280;65830;0.000;0.000;2024-01-07T09:32:57;97973.69;;;10.40;100.00
76858;BME280;65830;0.000;0.000;2024-01-07T09:35:23;97973.19;;;10.59;100.00
76858;BME280;65830;0.000;0.000;2024-01-07T09:37:48;97980.13;;;10.60;100.00
76858;BME280;65830;0.000;0.000;2024-01-07T09:40:17;97976.69;;;10.75;100.00
76858;BME280;65830;0.000;0.000;2024-01-07T09:42:46;97970.47;;;10.97;100.00
76858;BME280;65830;0.000;0.000;2024-01-07T09:45:13;97966.84;;;10.98;100.00
76858;BME280;65830;0.000;0.000;2024-01-07T09:47:39;97968.84;;;10.96;100.00
76858;BME280;65830;0.000;0.000;2024-01-07T09:50:05;97975.34;;;11.08;100.00
76858;BME280;65830;0.000;0.000;2024-01-07T09:52:32;97971.94;;;11.29;100.00
76858;BME280;65830;0.000;0.000;2024-01-07T09:54:58;97968.34;;;11.37;100.00
76858;BME280;65830;0.000;0.000;2024-01-07T09:57:25;97963.97;;;11.29;100.00
76858;BME280;65830;0.000;0.000;2024-01-07T09:59:51;97951.16;;;11.33;100.00
76858;BME280;65830;0.000;0.000;2024-01-07T10:02:16;97940.91;;;11.30;100.00
76858;BME280;65830;0.000;0.000;2024-01-07T10:04:42;97941.91;;;11.44;100.00
76858;BME280;65830;0.000;0.000;2024-01-07T10:07:08;97942.06;;;11.79;100.00
76858;BME280;65830;0.000;0.000;2024-01-07T10:09:34;97939.47;;;11.64;100.00
76858;BME280;65830;0.000;0.000;2024-01-07T10:12:00;97925.09;;;11.58;100.00
76858;BME280;65830;0.000;0.000;2024-01-07T10:14:25;97916.06;;;11.74;100.00
76858;BME280;65830;0.000;0.000;2024-01-07T10:16:51;97913.72;;;11.86;100.00
76858;BME280;65830;0.000;0.000;2024-01-07T10:19:23;97911.53;;;11.89;100.00
76858;BME280;65830;0.000;0.000;2024-01-07T10:22:02;97915.16;;;11.88;100.00
76858;BME280;65830;0.000;0.000;2024-01-07T10:24:37;97919.22;;;11.84;100.00
76858;BME280;65830;0.000;0.000;2024-01-07T10:27:04;97912.50;;;11.67;100.00
76858;BME280;65830;0.000;0.000;2024-01-07T10:29:30;97909.97;;;11.80;100.00
76858;BME280;65830;0.000;0.000;2024-01-07T10:31:57;97900.06;;;11.89;100.00
76858;BME280;65830;0.000;0.000;2024-01-07T10:34:23;97906.41;;;12.09;100.00
76858;BME280;65830;0.000;0.000;2024-01-07T10:36:49;97900.34;;;12.22;100.00
76858;BME280;65830;0.000;0.000;2024-01-07T10:39:15;97894.97;;;12.37;100.00
76858;BME280;65830;0.000;0.000;2024-01-07T10:41:41;97880.75;;;12.23;100.00
76858;BME280;65830;0.000;0.000;2024-01-07T10:44:07;97874.81;;;12.21;100.00
76858;BME280;65830;0.000;0.000;2024-01-07T10:46:33;97875.88;;;12.27;100.00
76858;BME280;65830;0.000;0.000;2024-01-07T10:48:59;97870.00;;;12.38;100.00
76858;BME280;65830;0.000;0.000;2024-01-07T10:51:28;97860.50;;;12.57;100.00
76858;BME280;65830;0.000;0.000;2024-01-07T10:53:56;97859.22;;;12.88;99.88
76858;BME280;65830;0.000;0.000;2024-01-07T10:56:25;97860.41;;;13.27;95.30
76858;BME280;65830;0.000;0.000;2024-01-07T10:58:54;97864.25;;;13.86;92.23
76858;BME280;65830;0.000;0.000;2024-01-07T11:01:20;97856.25;;;14.13;88.86
76858;BME280;65830;0.000;0.000;2024-01-07T11:03:49;97845.78;;;14.31;86.49
76858;BME280;65830;0.000;0.000;2024-01-07T11:06:27;97843.66;;;14.66;83.89
76858;BME280;65830;0.000;0.000;2024-01-07T11:11:49;97854.84;;;15.02;77.98
76858;BME280;65830;0.000;0.000;2024-01-07T11:16:58;97857.84;;;15.25;73.75
76858;BME280;65830;0.000;0.000;2024-01-07T11:19:24;97844.66;;;15.31;74.06
76858;BME280;65830;0.000;0.000;2024-01-07T11:21:49;97844.75;;;15.49;70.90
76858;BME280;65830;0.000;0.000;2024-01-07T11:27:02;97845.59;;;15.81;70.64
76858;BME280;65830;0.000;0.000;2024-01-07T11:29:28;97850.19;;;16.24;69.40
76858;BME280;65830;0.000;0.000;2024-01-07T11:31:53;97848.53;;;16.48;65.81
76858;BME280;65830;0.000;0.000;2024-01-07T11:37:03;97838.50;;;17.48;61.60
76858;BME280;65830;0.000;0.000;2024-01-07T11:39:33;97836.13;;;17.10;62.79
76858;BME280;65830;0.000;0.000;2024-01-07T11:42:01;97834.59;;;17.32;62.87
76858;BME280;65830;0.000;0.000;2024-01-07T11:44:27;97839.25;;;17.06;61.40
76858;BME280;65830;0.000;0.000;2024-01-07T11:46:53;97838.22;;;17.07;63.06
76858;BME280;65830;0.000;0.000;2024-01-07T11:49:18;97836.84;;;17.35;62.36
76858;BME280;65830;0.000;0.000;2024-01-07T11:51:44;97834.00;;;17.91;58.81
76858;BME280;65830;0.000;0.000;2024-01-07T11:54:10;97835.19;;;18.06;58.09
76858;BME280;65830;0.000;0.000;2024-01-07T11:56:37;97831.56;;;18.01;57.74
76858;BME280;65830;0.000;0.000;2024-01-07T11:59:03;97835.16;;;17.04;58.25
76858;BME280;65830;0.000;0.000;2024-01-07T12:01:28;97835.09;;;16.55;60.64
76858;BME280;65830;0.000;0.000;2024-01-07T12:03:54;97829.88;;;16.17;61.69
76858;BME280;65830;0.000;0.000;2024-01-07T12:06:20;97818.09;;;15.74;65.53
76858;BME280;65830;0.000;0.000;2024-01-07T12:08:45;97821.50;;;15.56;67.59
76858;BME280;65830;0.000;0.000;2024-01-07T12:11:11;97820.03;;;15.22;70.11
76858;BME280;65830;0.000;0.000;2024-01-07T12:13:37;97820.31;;;15.45;68.83
76858;BME280;65830;0.000;0.000;2024-01-07T12:16:04;97821.44;;;15.63;71.66
76858;BME280;65830;0.000;0.000;2024-01-07T12:18:30;97827.94;;;15.80;68.99
76858;BME280;65830;0.000;0.000;2024-01-07T12:20:56;97822.44;;;15.30;69.31
76858;BME280;65830;0.000;0.000;2024-01-07T12:23:22;97817.66;;;15.07;70.49
76858;BME280;65830;0.000;0.000;2024-01-07T12:25:47;97820.22;;;15.27;71.02
76858;BME280;65830;0.000;0.000;2024-01-07T12:28:13;97824.78;;;15.52;70.56
76858;BME280;65830;0.000;0.000;2024-01-07T12:30:38;97821.69;;;15.55;70.89
76858;BME280;65830;0.000;0.000;2024-01-07T12:33:04;97823.56;;;15.54;71.02
76858;BME280;65830;0.000;0.000;2024-01-07T12:35:30;97832.50;;;15.73;70.78
76858;BME280;65830;0.000;0.000;2024-01-07T12:37:56;97820.84;;;15.93;71.27
76858;BME280;65830;0.000;0.000;2024-01-07T12:40:24;97822.13;;;15.83;71.43
76858;BME280;65830;0.000;0.000;2024-01-07T12:42:52;97817.28;;;15.67;72.41
76858;BME280;65830;0.000;0.000;2024-01-07T12:45:18;97822.63;;;15.67;73.29
76858;BME280;65830;0.000;0.000;2024-01-07T12:47:43;97821.38;;;15.76;72.36
76858;BME280;65830;0.000;0.000;2024-01-07T12:50:09;97815.22;;;15.76;73.28
76858;BME280;65830;0.000;0.000;2024-01-07T12:52:38;97822.22;;;15.38;73.52
76858;BME280;65830;0.000;0.000;2024-01-07T12:55:04;97819.81;;;15.62;73.56
76858;BME280;65830;0.000;0.000;2024-01-07T12:57:30;97820.75;;;15.42;74.33
76858;BME280;65830;0.000;0.000;2024-01-07T12:59:56;97813.94;;;15.46;74.39
76858;BME280;65830;0.000;0.000;2024-01-07T13:02:21;97823.94;;;15.58;73.56
76858;BME280;65830;0.000;0.000;2024-01-07T13:04:46;97816.31;;;15.61;74.10
76858;BME280;65830;0.000;0.000;2024-01-07T13:07:12;97828.00;;;15.67;72.92
76858;BME280;65830;0.000;0.000;2024-01-07T13:09:38;97824.44;;;15.48;73.35
76858;BME280;65830;0.000;0.000;2024-01-07T13:12:03;97823.16;;;15.19;74.95
76858;BME280;65830;0.000;0.000;2024-01-07T13:14:29;97821.66;;;14.78;77.04
76858;BME280;65830;0.000;0.000;2024-01-07T13:16:55;97820.88;;;14.77;77.52